createdAt,value
2023-04-14T00:02:56.523Z,0
2023-04-14T00:09:16.460Z,0
2023-04-14T00:15:39.504Z,0
2023-04-14T00:21:59.438Z,0
2023-04-14T00:28:22.518Z,0
2023-04-14T00:34:42.403Z,0
2023-04-14T00:41:05.336Z,0
2023-04-14T00:47:25.506Z,0
2023-04-14T00:53:48.363Z,0
2023-04-14T01:00:08.425Z,0
2023-04-14T01:06:31.394Z,0
2023-04-14T01:12:51.498Z,0
2023-04-14T01:19:14.448Z,0
2023-04-14T01:25:34.419Z,0
2023-04-14T01:31:57.484Z,0
2023-04-14T01:38:17.483Z,0
2023-04-14T01:44:40.528Z,0
2023-04-14T01:51:00.487Z,0
2023-04-14T01:57:23.328Z,0
2023-04-14T02:03:43.534Z,0
2023-04-14T02:10:06.559Z,0
2023-04-14T02:16:26.483Z,0
2023-04-14T02:22:49.339Z,0
2023-04-14T02:29:09.369Z,0
2023-04-14T02:35:32.314Z,0
2023-04-14T02:41:52.504Z,0
2023-04-14T02:48:15.481Z,0
2023-04-14T02:54:35.345Z,0
2023-04-14T03:00:58.331Z,0
2023-04-14T03:07:18.375Z,0
2023-04-14T03:23:46.149Z,0
2023-04-14T03:30:06.389Z,0
2023-04-14T03:36:29.443Z,0
2023-04-14T03:42:49.504Z,0
2023-04-14T03:49:12.452Z,0
2023-04-14T03:55:32.370Z,0
2023-04-14T04:01:55.577Z,0
2023-04-14T04:08:15.485Z,0
2023-04-14T04:14:39.171Z,1
2023-04-14T04:20:58.521Z,3
2023-04-14T04:27:27.925Z,8
2023-04-14T04:33:41.337Z,22
2023-04-14T04:40:04.456Z,47
2023-04-14T04:46:24.498Z,87
2023-04-14T04:52:47.399Z,141
2023-04-14T04:59:07.346Z,196
2023-04-14T05:05:30.416Z,254
2023-04-14T05:11:50.388Z,317
2023-04-14T05:18:13.527Z,379
2023-04-14T05:24:33.405Z,451
2023-04-14T05:30:56.473Z,496
2023-04-14T05:37:16.379Z,565
2023-04-14T05:43:39.358Z,619
2023-04-14T05:49:59.420Z,676
2023-04-14T05:56:22.397Z,726
2023-04-14T06:02:42.792Z,767
2023-04-14T06:09:05.388Z,805
2023-04-14T06:15:25.355Z,854
2023-04-14T06:21:48.421Z,896
2023-04-14T06:28:08.376Z,943
2023-04-14T06:34:31.549Z,985
2023-04-14T06:40:53.178Z,1023
2023-04-14T06:47:14.347Z,1070
2023-04-14T06:53:34.365Z,1108
2023-04-14T06:59:57.430Z,1139
2023-04-14T07:06:17.395Z,1166
2023-04-14T07:12:40.452Z,1195
2023-04-14T07:19:00.338Z,1225
2023-04-14T07:25:23.385Z,1249
2023-04-14T07:31:43.722Z,1275
2023-04-14T07:38:06.334Z,1302
2023-04-14T07:44:26.485Z,1339
2023-04-14T07:50:49.476Z,1392
2023-04-14T07:57:09.352Z,1452
2023-04-14T08:03:32.749Z,1521
2023-04-14T08:09:52.371Z,1590
2023-04-14T08:25:26.309Z,1783
2023-04-14T08:31:46.425Z,1843
2023-04-14T08:38:09.411Z,1911
2023-04-14T08:44:29.503Z,2012
2023-04-14T08:50:52.394Z,2107
2023-04-14T08:57:12.407Z,2199
2023-04-14T09:03:35.569Z,2308
2023-04-14T09:09:55.425Z,2416
2023-04-14T09:16:18.430Z,2538
2023-04-14T09:22:38.465Z,2632
2023-04-14T09:29:01.594Z,2700
2023-04-14T09:35:21.327Z,2804
2023-04-14T09:41:44.461Z,2890
2023-04-14T09:48:04.443Z,3079
2023-04-14T09:54:27.359Z,1295
2023-04-14T10:00:47.389Z,3225
2023-04-14T10:07:10.424Z,3462
2023-04-14T10:13:30.370Z,3892
2023-04-14T10:19:53.457Z,1833
2023-04-14T10:26:13.454Z,1906
2023-04-14T10:32:36.393Z,4544
2023-04-14T10:38:56.456Z,5129
2023-04-14T10:45:19.368Z,5138
2023-04-14T10:51:39.377Z,4601
2023-04-14T10:58:02.368Z,4725
2023-04-14T11:04:22.406Z,4652
2023-04-14T11:10:45.386Z,4366
2023-04-14T11:17:05.428Z,4653
2023-04-14T11:23:28.410Z,5095
2023-04-14T11:29:48.352Z,5634
2023-04-14T11:36:11.422Z,6323
2023-04-14T11:42:31.353Z,6222
2023-04-14T11:48:54.382Z,6713
2023-04-14T11:55:14.429Z,6755
2023-04-14T12:01:37.329Z,6518
2023-04-14T12:07:57.337Z,5674
2023-04-14T12:14:20.377Z,7232
2023-04-14T12:20:40.342Z,3984
2023-04-14T12:27:03.430Z,3585
2023-04-14T12:33:23.468Z,4845
2023-04-14T12:39:46.352Z,7321
2023-04-14T12:46:06.424Z,7409
2023-04-14T12:52:29.395Z,7382
2023-04-14T12:58:49.448Z,7393
2023-04-14T13:05:12.357Z,7313
2023-04-14T13:11:32.383Z,7140
2023-04-14T13:17:55.386Z,7656
2023-04-14T13:24:15.345Z,3434
2023-04-14T13:30:38.415Z,3977
2023-04-14T13:36:58.351Z,8084
2023-04-14T13:43:21.400Z,8502
2023-04-14T13:59:46.247Z,8832
2023-04-14T14:06:06.346Z,2932
2023-04-14T14:12:29.338Z,2840
2023-04-14T14:18:49.499Z,8629
2023-04-14T14:25:20.005Z,2798
2023-04-14T14:31:32.434Z,8629
2023-04-14T14:37:55.399Z,2723
2023-04-14T14:44:16.333Z,2791
2023-04-14T14:50:39.404Z,3181
2023-04-14T14:57:06.301Z,5056
2023-04-14T15:03:29.447Z,8280
2023-04-14T15:09:49.313Z,7970
2023-04-14T15:16:12.356Z,7972
2023-04-14T15:22:32.360Z,7387
2023-04-14T15:28:55.379Z,7375
2023-04-14T15:35:15.693Z,7338
2023-04-14T15:41:38.419Z,7419
2023-04-14T15:47:58.483Z,7367
2023-04-14T15:54:21.385Z,7318
2023-04-14T16:00:41.391Z,7600
2023-04-14T16:07:04.394Z,7761
2023-04-14T16:13:24.370Z,7305
2023-04-14T16:19:47.410Z,7440
2023-04-14T16:26:07.380Z,6721
2023-04-14T16:32:30.434Z,7717
2023-04-14T16:38:50.395Z,6339
2023-04-14T16:45:13.384Z,6051
2023-04-14T16:51:33.435Z,5598
2023-04-14T16:57:56.357Z,4873
2023-04-14T17:04:16.462Z,4710
2023-04-14T17:10:39.460Z,4184
2023-04-14T17:16:59.366Z,7124
2023-04-14T17:23:22.427Z,12704
2023-04-14T17:29:42.429Z,6938
2023-04-14T17:36:05.333Z,5752
2023-04-14T17:42:25.522Z,1971
2023-04-14T17:48:48.333Z,765
2023-04-14T17:55:08.418Z,618
2023-04-14T18:01:31.375Z,482
2023-04-14T18:07:51.446Z,347
2023-04-14T18:14:14.416Z,233
2023-04-14T18:20:34.355Z,142
2023-04-14T18:26:57.462Z,78
2023-04-14T18:33:17.342Z,38
2023-04-14T18:39:40.402Z,15
2023-04-14T18:46:00.415Z,6
2023-04-14T18:52:23.394Z,2
2023-04-14T18:58:43.436Z,1
2023-04-14T19:05:06.494Z,1
2023-04-14T19:28:30.280Z,0
2023-04-14T19:34:50.322Z,0
2023-04-14T19:41:13.357Z,0
2023-04-14T19:47:33.371Z,0
2023-04-14T19:53:56.361Z,0
2023-04-14T20:00:16.375Z,0
2023-04-14T20:06:39.459Z,0
2023-04-14T20:12:59.403Z,0
2023-04-14T20:19:22.350Z,0
2023-04-14T20:25:42.371Z,0
2023-04-14T20:32:05.446Z,0
2023-04-14T20:38:25.371Z,0
2023-04-14T20:44:48.460Z,0
2023-04-14T20:51:08.373Z,0
2023-04-14T20:57:31.352Z,0
2023-04-14T21:03:51.589Z,0
2023-04-14T21:10:14.397Z,0
2023-04-14T21:16:34.494Z,0
2023-04-14T21:22:57.437Z,0
2023-04-14T21:29:17.453Z,0
2023-04-14T21:35:40.414Z,0
2023-04-14T21:42:00.359Z,0
2023-04-14T21:48:23.415Z,0
2023-04-14T21:54:43.497Z,0
2023-04-14T22:20:17.337Z,0
2023-04-14T22:26:37.346Z,0
2023-04-14T22:33:00.417Z,0
2023-04-14T22:39:20.548Z,0
2023-04-14T22:45:43.416Z,0
2023-04-14T22:52:03.370Z,0
2023-04-14T22:58:26.456Z,0
2023-04-14T23:04:46.460Z,0
2023-04-14T23:11:09.495Z,0
2023-04-14T23:17:29.497Z,0
2023-04-14T23:23:52.411Z,0
2023-04-14T23:30:12.395Z,0
2023-04-14T23:36:35.529Z,0
2023-04-14T23:42:55.326Z,0
2023-04-14T23:49:23.901Z,0
2023-04-14T23:55:38.458Z,0
